createdAt,value
2018-04-13T00:00:07.685Z,67.7
2018-04-13T00:05:10.539Z,67.7
2018-04-13T00:10:23.541Z,67.6
2018-04-13T00:15:05.227Z,67.6
2018-04-13T00:20:02.579Z,67.6
2018-04-13T00:25:07.967Z,67.7
2018-04-13T00:30:05.803Z,67.6
2018-04-13T00:35:05.137Z,67.5
2018-04-13T00:40:07.962Z,67.3
2018-04-13T00:45:08.292Z,67.3
2018-04-13T00:50:15.259Z,67.1
2018-04-13T00:55:13.052Z,67.1
2018-04-13T01:00:18.529Z,66.9
2018-04-13T01:05:05.255Z,67.1
2018-04-13T01:10:08.098Z,67.1
2018-04-13T01:15:05.884Z,67
2018-04-13T01:20:05.895Z,66.9
2018-04-13T01:25:10.196Z,66.7
2018-04-13T01:30:03.473Z,66.7
2018-04-13T01:35:10.411Z,66.7
2018-04-13T01:40:05.708Z,66.9
2018-04-13T01:45:03.458Z,66.9
2018-04-13T01:50:02.776Z,67.5
2018-04-13T01:55:03.097Z,67.1
2018-04-13T02:00:08.617Z,67.4
2018-04-13T02:05:05.359Z,67.5
2018-04-13T02:10:03.124Z,67.5
2018-04-13T02:15:08.487Z,67.8
2018-04-13T02:20:02.914Z,67.8
2018-04-13T02:25:03.232Z,67.9
2018-04-13T02:30:03.559Z,68.1
2018-04-13T02:35:08.154Z,68.4
2018-04-13T02:40:10.499Z,68.6
2018-04-13T02:45:18.444Z,68.6
2018-04-13T02:50:05.275Z,68.8
2018-04-13T02:55:15.748Z,68.7
2018-04-13T03:00:03.087Z,68.7
2018-04-13T03:05:08.443Z,68.4
2018-04-13T03:10:05.691Z,68.3
2018-04-13T03:15:05.981Z,68
2018-04-13T03:20:03.316Z,68
2018-04-13T03:25:02.651Z,68
2018-04-13T03:30:03.006Z,68
2018-04-13T03:35:18.479Z,68.2
2018-04-13T03:40:03.255Z,68.2
2018-04-13T03:45:06.067Z,68.5
2018-04-13T03:50:05.901Z,68.5
2018-04-13T03:55:05.182Z,68.8
2018-04-13T04:00:03.528Z,68.8
2018-04-13T04:05:07.855Z,68.8
2018-04-13T04:10:05.126Z,68.8
2018-04-13T04:15:05.441Z,68.8
2018-04-13T04:20:02.880Z,68.8
2018-04-13T04:25:03.134Z,68.8
2018-04-13T04:30:13.566Z,68.6
2018-04-13T04:35:10.355Z,68.6
2018-04-13T04:40:03.104Z,68.6
2018-04-13T04:45:08.498Z,68.5
2018-04-13T04:50:15.514Z,68.5
2018-04-13T04:55:05.690Z,68.2
2018-04-13T05:00:05.658Z,68.2
2018-04-13T05:05:08.538Z,68.5
2018-04-13T05:10:15.979Z,68.1
2018-04-13T05:15:10.243Z,68
2018-04-13T05:20:15.288Z,67.9
2018-04-13T05:25:15.603Z,68
2018-04-13T05:30:02.926Z,68
2018-04-13T05:35:03.222Z,68
2018-04-13T05:40:03.014Z,68
2018-04-13T05:45:13.414Z,67.8
2018-04-13T05:50:07.814Z,67.5
2018-04-13T05:55:05.611Z,67.3
2018-04-13T06:00:03.000Z,67.3
2018-04-13T06:05:08.293Z,67.1
2018-04-13T06:10:05.639Z,67
2018-04-13T06:15:03.421Z,66.9
2018-04-13T06:20:15.463Z,66.7
2018-04-13T06:25:23.601Z,66.6
2018-04-13T06:30:08.001Z,66.5
2018-04-13T06:35:03.331Z,66.5
2018-04-13T06:40:05.597Z,66.1
2018-04-13T06:45:05.938Z,65.7
2018-04-13T06:50:15.974Z,65.6
2018-04-13T06:55:02.593Z,65.6
2018-04-13T07:00:02.916Z,65.6
2018-04-13T07:05:20.931Z,67
2018-04-13T07:10:02.724Z,67
2018-04-13T07:15:10.640Z,73.1
2018-04-13T07:20:10.630Z,77.7
2018-04-13T07:25:03.345Z,77.7
2018-04-13T07:30:20.356Z,84.2
2018-04-13T07:35:18.099Z,85.5
2018-04-13T07:40:05.781Z,86.8
2018-04-13T07:45:03.176Z,86.8
2018-04-13T07:50:08.633Z,88.1
2018-04-13T07:55:08.477Z,88.6
2018-04-13T08:00:05.369Z,88.1
2018-04-13T08:05:16.074Z,88.5
2018-04-13T08:10:05.343Z,89.1
2018-04-13T08:15:13.352Z,89.4
2018-04-13T08:20:05.262Z,89.9
2018-04-13T08:25:03.033Z,89.9
2018-04-13T08:30:03.350Z,90.1
2018-04-13T08:35:07.745Z,90.2
2018-04-13T08:40:05.989Z,90
2018-04-13T08:45:10.521Z,89.6
2018-04-13T08:50:05.411Z,87.8
2018-04-13T08:55:13.330Z,87.8
2018-04-13T09:00:02.635Z,87.8
2018-04-13T09:05:05.461Z,87.3
2018-04-13T09:10:03.256Z,87.3
2018-04-13T09:15:08.605Z,86.7
2018-04-13T09:20:03.003Z,86.6
2018-04-13T09:25:05.874Z,84.3
2018-04-13T09:30:03.203Z,84.2
2018-04-13T09:35:13.739Z,83.2
2018-04-13T09:40:03.473Z,83.2
2018-04-13T09:45:18.037Z,85.2
2018-04-13T09:50:03.337Z,85.2
2018-04-13T09:55:22.910Z,83.5
2018-04-13T10:00:03.291Z,83.4
2018-04-13T10:05:07.620Z,81.7
2018-04-13T10:10:03.385Z,81.7
2018-04-13T10:15:02.758Z,80.5
2018-04-13T10:20:03.158Z,81.2
2018-04-13T10:25:03.438Z,81.8
2018-04-13T10:30:07.814Z,80.4
2018-04-13T10:35:03.015Z,80.4
2018-04-13T10:40:07.885Z,79.5
2018-04-13T10:45:08.188Z,79.1
2018-04-13T10:50:05.992Z,78.4
2018-04-13T10:55:07.866Z,77.7
2018-04-13T11:00:05.744Z,77.7
2018-04-13T11:05:38.909Z,76.8
2018-04-13T11:10:05.243Z,76.3
2018-04-13T11:15:05.883Z,76.4
2018-04-13T11:20:18.675Z,76.3
2018-04-13T11:25:07.955Z,76.1
2018-04-13T11:30:23.488Z,76.5
2018-04-13T11:35:02.674Z,76.5
2018-04-13T11:40:08.529Z,75.7
2018-04-13T11:45:02.772Z,75.7
2018-04-13T11:50:05.653Z,74.1
2018-04-13T11:55:08.481Z,73.7
2018-04-13T12:00:07.874Z,73.2
2018-04-13T12:05:08.165Z,72.6
2018-04-13T12:10:02.890Z,72.7
2018-04-13T12:15:05.806Z,71.5
2018-04-13T12:20:18.381Z,70.8
2018-04-13T12:25:08.572Z,69.5
2018-04-13T12:30:05.488Z,68.2
2018-04-13T12:35:13.314Z,67
2018-04-13T12:40:05.715Z,66.3
2018-04-13T12:45:03.528Z,66.1
2018-04-13T12:50:02.848Z,65.2
2018-04-13T12:55:11.661Z,62.7
2018-04-13T13:00:05.774Z,61.1
2018-04-13T13:05:27.909Z,62.3
2018-04-13T13:10:10.238Z,59.2
2018-04-13T13:15:05.563Z,58.4
2018-04-13T13:20:02.982Z,58.4
2018-04-13T13:25:05.883Z,54.8
2018-04-13T13:30:10.911Z,55.9
2018-04-13T13:35:07.700Z,54.7
2018-04-13T13:40:08.551Z,54.7
2018-04-13T13:45:15.580Z,54.1
2018-04-13T13:50:05.496Z,54
2018-04-13T13:55:13.487Z,52.8
2018-04-13T14:00:02.839Z,52.8
2018-04-13T14:05:05.891Z,52.2
2018-04-13T14:10:02.730Z,52.2
2018-04-13T14:15:03.130Z,53
2018-04-13T14:20:03.594Z,51
2018-04-13T14:25:13.088Z,46.5
2018-04-13T14:30:08.528Z,47.6
2018-04-13T14:35:20.801Z,47.9
2018-04-13T14:40:05.618Z,46.4
2018-04-13T14:45:03.441Z,46.4
2018-04-13T14:50:10.530Z,47.3
2018-04-13T14:55:05.844Z,47.1
2018-04-13T15:00:03.230Z,47.2
2018-04-13T15:05:05.172Z,52
2018-04-13T15:10:05.501Z,53.5
2018-04-13T15:15:03.299Z,53.6
2018-04-13T15:20:05.233Z,62.2
2018-04-13T15:25:03.064Z,62.1
2018-04-13T15:30:03.491Z,67.3
2018-04-13T15:35:02.864Z,70.4
2018-04-13T15:40:02.657Z,72.8
2018-04-13T15:45:03.194Z,75.5
2018-04-13T15:50:21.325Z,78.3
2018-04-13T15:55:18.077Z,79
2018-04-13T16:00:11.021Z,80.4
2018-04-13T16:05:07.798Z,80.6
2018-04-13T16:10:03.583Z,80.8
2018-04-13T16:15:05.401Z,82.2
2018-04-13T16:20:15.510Z,82.5
2018-04-13T16:25:05.651Z,83.5
2018-04-13T16:30:05.541Z,83.4
2018-04-13T16:35:13.467Z,84.4
2018-04-13T16:40:10.802Z,84.2
2018-04-13T16:45:05.100Z,84.1
2018-04-13T16:50:10.986Z,83.4
2018-04-13T16:55:07.764Z,84.6
2018-04-13T17:00:03.093Z,84.7
2018-04-13T17:05:05.995Z,85
2018-04-13T17:10:05.338Z,85.6
2018-04-13T17:15:18.242Z,85.3
2018-04-13T17:20:07.619Z,85.7
2018-04-13T17:25:05.449Z,86.6
2018-04-13T17:30:02.729Z,86.5
2018-04-13T17:35:15.775Z,86.9
2018-04-13T17:40:02.779Z,86.9
2018-04-13T17:45:03.154Z,86.5
2018-04-13T17:50:16.174Z,87.6
2018-04-13T17:55:02.825Z,87.6
2018-04-13T18:00:03.444Z,88
2018-04-13T18:05:07.662Z,88.4
2018-04-13T18:10:13.543Z,88.4
2018-04-13T18:15:12.959Z,88.5
2018-04-13T18:20:05.885Z,89.1
2018-04-13T18:25:33.045Z,88.7
2018-04-13T18:30:08.399Z,89
2018-04-13T18:35:05.229Z,88.7
2018-04-13T18:40:05.500Z,89.4
2018-04-13T18:45:08.344Z,89.8
2018-04-13T18:50:02.637Z,89.8
2018-04-13T18:55:13.115Z,89.8
2018-04-13T19:00:03.605Z,89.8
2018-04-13T19:05:10.487Z,90.1
2018-04-13T19:10:05.811Z,90.2
2018-04-13T19:15:10.220Z,90.4
2018-04-13T19:20:07.641Z,90.6
2018-04-13T19:25:02.923Z,90.6
2018-04-13T19:30:13.417Z,90.8
2018-04-13T19:35:02.662Z,90.8
2018-04-13T19:40:23.672Z,90.8
2018-04-13T19:45:15.524Z,91.3
2018-04-13T19:50:10.513Z,92.1
2018-04-13T19:55:05.734Z,92.2
2018-04-13T20:00:03.058Z,92.2
2018-04-13T20:05:10.937Z,92.1
2018-04-13T20:10:10.258Z,92.3
2018-04-13T20:15:08.078Z,92.3
2018-04-13T20:20:06.016Z,92.2
2018-04-13T20:25:02.801Z,92.2
2018-04-13T20:30:03.106Z,92.3
2018-04-13T20:35:26.171Z,92.4
2018-04-13T20:40:05.412Z,92.4
2018-04-13T20:45:03.224Z,92.4
2018-04-13T20:50:11.083Z,92.5
2018-04-13T20:55:12.968Z,92.4
2018-04-13T21:00:05.927Z,92.4
2018-04-13T21:05:05.118Z,92.5
2018-04-13T21:10:15.523Z,92.6
2018-04-13T21:15:10.784Z,92.4
2018-04-13T21:20:05.674Z,91.9
2018-04-13T21:25:13.507Z,91.2
2018-04-13T21:30:10.363Z,90.5
2018-04-13T21:35:05.612Z,90.2
2018-04-13T21:40:03.354Z,90.2
2018-04-13T21:45:07.758Z,87.6
2018-04-13T21:50:03.098Z,87.6
2018-04-13T21:55:03.382Z,87.5
2018-04-13T22:00:02.643Z,87.6
2018-04-13T22:05:15.588Z,87.4
2018-04-13T22:10:03.310Z,87.4
2018-04-13T22:15:12.909Z,87.2
2018-04-13T22:20:05.771Z,86.4
2018-04-13T22:25:03.526Z,86.4
2018-04-13T22:30:07.975Z,88.7
2018-04-13T22:35:10.748Z,89
2018-04-13T22:40:11.144Z,88.1
2018-04-13T22:45:12.905Z,87.5
2018-04-13T22:50:05.749Z,88.2
2018-04-13T22:55:06.015Z,89.2
2018-04-13T23:00:03.285Z,89.2
2018-04-13T23:05:05.158Z,88.7
2018-04-13T23:10:02.893Z,88.8
2018-04-13T23:15:05.769Z,88.8
2018-04-13T23:20:10.775Z,88.5
2018-04-13T23:25:08.478Z,87.9
2018-04-13T23:30:10.378Z,88.3
2018-04-13T23:35:03.018Z,88.3
2018-04-13T23:40:22.987Z,88.7
2018-04-13T23:45:03.024Z,88.8
2018-04-13T23:50:03.375Z,88.4
2018-04-13T23:55:07.788Z,89.6
